Time;durP1;ratioP1;P1;durP2;ratioP2;P2;SDS_P1;SDS_P2;PMS_P1;PMS_P2;Temp;Humidity;BMP_temperature;BMP_pressure;BME280_temperature;BME280_humidity;BME280_pressure;Samples;Min_cycle;Max_cycle;Signal;HPM_P1;HPM_P2
2020/12/13 13:13:06;;;;;;;5.32;1.98;;;;;;;;;;5126322;27;20310;-78
2020/12/13 13:18:33;;;;;;;6.20;2.03;;;;;;;;;;5127363;28;20023;-78
2020/12/13 13:21:01;;;;;;;6.18;2.08;;;;;;;;;;5115589;28;20066;-77
2020/12/13 13:23:27;;;;;;;5.10;2.25;;;;;;;;;;5130272;28;20019;-78
2020/12/13 13:25:54;;;;;;;5.07;2.15;;;;;;;;;;5131595;28;20034;-78
2020/12/13 13:28:20;;;;;;;5.78;2.28;;;;;;;;;;5147007;28;20032;-78
2020/12/13 13:30:47;;;;;;;4.45;1.85;;;;;;;;;;5131399;28;20027;-78
2020/12/13 13:33:13;;;;;;;3.97;1.73;;;;;;;;;;5130451;28;20019;-78
2020/12/13 13:35:39;;;;;;;4.25;1.80;;;;;;;;;;5135982;28;20059;-78
2020/12/13 13:38:06;;;;;;;5.50;1.67;;;;;;;;;;5134971;28;20032;-81
2020/12/13 13:40:33;;;;;;;5.97;1.80;;;;;;;;;;5138099;28;20368;-80
2020/12/13 13:43:02;;;;;;;7.07;2.33;;;;;;;;;;5141440;28;20023;-79
2020/12/13 13:50:20;;;;;;;4.88;1.60;;;;;;;;;;5144283;28;20064;-79
2020/12/13 13:52:47;;;;;;;4.07;1.73;;;;;;;;;;5144494;28;20027;-80
2020/12/13 13:57:39;;;;;;;5.45;1.45;;;;;;;;;;5144327;28;20399;-80
2020/12/13 14:00:07;;;;;;;5.80;1.52;;;;;;;;;;5144065;27;20023;-79
2020/12/13 14:02:33;;;;;;;4.57;1.67;;;;;;;;;;5142658;27;20023;-80
2020/12/13 14:05:00;;;;;;;5.40;1.63;;;;;;;;;;5139664;28;20080;-78
2020/12/13 14:09:53;;;;;;;7.50;1.80;;;;;;;;;;5135927;27;20052;-79
2020/12/13 14:12:19;;;;;;;6.88;2.13;;;;;;;;;;5138554;28;20106;-79
2020/12/13 14:14:45;;;;;;;6.88;2.03;;;;;;;;;;5136127;28;20063;-79
2020/12/13 14:17:12;;;;;;;5.43;2.00;;;;;;;;;;5121808;28;20024;-79
2020/12/13 14:19:38;;;;;;;3.60;1.70;;;;;;;;;;5139249;28;20554;-79
2020/12/13 14:22:04;;;;;;;4.57;1.85;;;;;;;;;;5122454;28;20031;-79
2020/12/13 14:24:30;;;;;;;4.35;1.20;;;;;;;;;;5124148;28;20027;-79
2020/12/13 14:26:56;;;;;;;6.95;1.90;;;;;;;;;;5125624;28;20031;-79
2020/12/13 14:29:23;;;;;;;4.72;1.25;;;;;;;;;;5108325;28;20036;-79
2020/12/13 14:31:53;;;;;;;5.57;1.52;;;;;;;;;;5110505;28;20031;-80
2020/12/13 14:34:19;;;;;;;3.47;1.42;;;;;;;;;;5132220;28;20062;-80
2020/12/13 14:36:45;;;;;;;5.75;1.50;;;;;;;;;;5133360;28;20027;-79
2020/12/13 14:39:12;;;;;;;4.32;1.55;;;;;;;;;;5114145;28;20047;-80
2020/12/13 14:41:38;;;;;;;5.60;1.27;;;;;;;;;;5124317;28;20152;-79
2020/12/13 14:44:04;;;;;;;5.88;1.92;;;;;;;;;;5107561;28;20058;-80
2020/12/13 14:46:30;;;;;;;4.65;1.92;;;;;;;;;;5106523;28;20447;-80
2020/12/13 14:48:56;;;;;;;6.38;2.03;;;;;;;;;;5120112;28;20043;-78
2020/12/13 14:51:22;;;;;;;6.10;2.22;;;;;;;;;;5115256;28;20024;-78
2020/12/13 14:53:48;;;;;;;5.28;2.05;;;;;;;;;;5101398;28;20104;-80
2020/12/13 14:56:14;;;;;;;6.15;2.40;;;;;;;;;;5093429;28;20076;-78
2020/12/13 14:58:40;;;;;;;10.15;4.63;;;;;;;;;;5094345;28;20095;-78
2020/12/13 15:01:06;;;;;;;7.70;3.13;;;;;;;;;;5081028;28;20031;-78
2020/12/13 15:03:32;;;;;;;9.20;3.83;;;;;;;;;;5097408;28;20091;-78
2020/12/13 15:06:00;;;;;;;7.93;2.90;;;;;;;;;;5097363;28;20109;-79
2020/12/13 15:08:26;;;;;;;8.77;3.33;;;;;;;;;;5097912;28;20035;-79
2020/12/13 15:10:52;;;;;;;8.80;3.70;;;;;;;;;;5099495;28;20047;-79
2020/12/13 15:13:34;;;;;;;11.82;4.20;;;;;;;;;;5083306;28;20071;-79
2020/12/13 15:16:11;;;;;;;11.00;4.15;;;;;;;;;;5099265;28;20066;-80
2020/12/13 15:18:37;;;;;;;11.07;5.20;;;;;;;;;;5099791;28;20039;-79
2020/12/13 15:21:03;;;;;;;10.40;5.13;;;;;;;;;;5099449;28;20054;-80
2020/12/13 15:23:29;;;;;;;9.38;3.60;;;;;;;;;;5090892;28;20035;-80
2020/12/13 15:25:55;;;;;;;6.10;2.80;;;;;;;;;;5099680;28;20047;-80
2020/12/13 15:28:21;;;;;;;7.55;3.20;;;;;;;;;;5118882;28;20024;-80
2020/12/13 15:30:47;;;;;;;12.75;6.82;;;;;;;;;;5119419;28;20015;-79
2020/12/13 15:33:16;;;;;;;13.80;7.43;;;;;;;;;;5130678;28;20031;-79
2020/12/13 15:35:42;;;;;;;15.43;7.45;;;;;;;;;;5120199;28;20511;-80
2020/12/13 15:38:08;;;;;;;15.57;7.05;;;;;;;;;;5116444;27;20237;-79
2020/12/13 15:40:35;;;;;;;9.80;5.50;;;;;;;;;;5098833;28;20023;-80
2020/12/13 15:43:01;;;;;;;8.82;5.75;;;;;;;;;;5116252;28;20112;-80
2020/12/13 15:45:27;;;;;;;7.15;5.20;;;;;;;;;;5099015;28;20043;-80
2020/12/13 15:47:53;;;;;;;10.32;6.32;;;;;;;;;;5116703;28;20070;-80
2020/12/13 15:50:24;;;;;;;19.60;9.98;;;;;;;;;;5117412;28;20125;-80
2020/12/13 15:52:50;;;;;;;12.35;7.80;;;;;;;;;;5116391;28;20027;-80
2020/12/13 15:55:16;;;;;;;13.73;7.70;;;;;;;;;;5081172;28;20581;-80
2020/12/13 15:57:43;;;;;;;9.90;7.22;;;;;;;;;;5080023;28;20146;-81
2020/12/13 16:00:09;;;;;;;12.90;7.65;;;;;;;;;;5086747;28;20036;-80
2020/12/13 16:02:35;;;;;;;19.30;10.27;;;;;;;;;;5109555;28;20043;-80
2020/12/13 16:05:14;;;;;;;17.83;8.93;;;;;;;;;;5107378;28;20032;-80
2020/12/13 16:07:42;;;;;;;13.95;8.30;;;;;;;;;;5097269;28;20081;-80
2020/12/13 16:10:08;;;;;;;14.35;7.70;;;;;;;;;;5099561;28;20031;-80
2020/12/13 16:12:34;;;;;;;15.63;8.07;;;;;;;;;;5079015;28;20069;-80
2020/12/13 16:15:01;;;;;;;21.45;13.68;;;;;;;;;;5099381;28;20024;-80
2020/12/13 16:17:27;;;;;;;16.92;11.90;;;;;;;;;;5103406;28;20050;-80
2020/12/13 16:19:57;;;;;;;20.85;12.23;;;;;;;;;;5085520;28;20040;-80
2020/12/13 16:22:23;;;;;;;17.00;10.15;;;;;;;;;;5106069;28;20028;-80
2020/12/13 16:24:49;;;;;;;18.30;11.10;;;;;;;;;;5111501;28;20026;-81
2020/12/13 16:27:15;;;;;;;18.77;10.13;;;;;;;;;;5113723;28;20039;-80
2020/12/13 16:29:41;;;;;;;16.65;9.38;;;;;;;;;;5111806;28;20100;-80
2020/12/13 16:32:09;;;;;;;17.58;9.85;;;;;;;;;;5112140;28;20032;-80
2020/12/13 16:34:36;;;;;;;17.40;10.15;;;;;;;;;;5109058;28;20024;-80
2020/12/13 16:37:03;;;;;;;17.70;9.38;;;;;;;;;;5090495;28;20032;-80
2020/12/13 16:39:36;;;;;;;12.10;8.18;;;;;;;;;;5109552;28;20023;-79
2020/12/13 16:42:10;;;;;;;14.65;8.77;;;;;;;;;;5109615;28;20024;-80
2020/12/13 16:44:38;;;;;;;16.58;8.27;;;;;;;;;;5106505;28;20055;-79
2020/12/13 16:47:07;;;;;;;11.90;7.45;;;;;;;;;;5085462;28;20035;-79
2020/12/13 16:54:50;;;;;;;17.67;10.35;;;;;;;;;;5101541;28;20042;-79
2020/12/13 16:57:16;;;;;;;18.92;8.40;;;;;;;;;;5101278;28;20020;-79
2020/12/13 16:59:43;;;;;;;17.90;9.15;;;;;;;;;;5103334;28;20391;-79
2020/12/13 17:02:12;;;;;;;16.70;8.13;;;;;;;;;;5104122;28;20035;-79
2020/12/13 17:04:39;;;;;;;15.13;8.85;;;;;;;;;;5103991;28;20448;-79
2020/12/13 17:07:11;;;;;;;12.98;8.48;;;;;;;;;;5102933;28;20066;-79
2020/12/13 17:09:38;;;;;;;18.52;8.98;;;;;;;;;;5105412;28;20028;-79
2020/12/13 17:12:04;;;;;;;18.58;8.60;;;;;;;;;;5105352;28;20034;-80
2020/12/13 17:14:30;;;;;;;20.15;10.23;;;;;;;;;;5108509;28;20498;-79
2020/12/13 17:16:56;;;;;;;19.50;11.88;;;;;;;;;;5101165;28;20034;-79
2020/12/13 17:19:22;;;;;;;26.13;13.60;;;;;;;;;;5111044;28;20035;-79
2020/12/13 17:21:48;;;;;;;24.42;13.55;;;;;;;;;;5123859;28;20653;-79
2020/12/13 17:24:15;;;;;;;25.75;15.32;;;;;;;;;;5123511;28;20069;-79
2020/12/13 17:26:41;;;;;;;24.20;14.85;;;;;;;;;;5123904;28;20016;-79
2020/12/13 17:29:07;;;;;;;29.23;16.80;;;;;;;;;;5124464;28;20030;-79
2020/12/13 17:31:34;;;;;;;26.73;17.25;;;;;;;;;;5124839;28;20032;-79
2020/12/13 17:34:00;;;;;;;25.35;12.85;;;;;;;;;;5121172;28;20027;-79
2020/12/13 17:36:33;;;;;;;26.48;12.88;;;;;;;;;;5120016;28;20028;-79
2020/12/13 17:39:00;;;;;;;44.53;26.50;;;;;;;;;;5121361;28;20027;-79
2020/12/13 17:41:26;;;;;;;31.40;16.98;;;;;;;;;;5118896;28;20020;-79
2020/12/13 17:46:21;;;;;;;24.33;14.15;;;;;;;;;;5124302;28;20039;-79
2020/12/13 17:48:47;;;;;;;25.88;14.77;;;;;;;;;;5124847;28;20028;-79
2020/12/13 17:51:38;;;;;;;19.38;13.00;;;;;;;;;;5122339;28;20504;-79
2020/12/13 17:54:36;;;;;;;22.63;12.57;;;;;;;;;;5121837;28;20051;-79
2020/12/13 17:56:58;;;;;;;21.40;13.77;;;;;;;;;;5117697;28;20055;-79
2020/12/13 17:59:30;;;;;;;21.30;12.60;;;;;;;;;;5109426;28;20030;-81
2020/12/13 18:01:56;;;;;;;20.55;12.50;;;;;;;;;;5110654;28;20277;-80
2020/12/13 18:04:22;;;;;;;21.48;12.93;;;;;;;;;;5128291;28;20035;-80
2020/12/13 18:06:48;;;;;;;19.58;11.73;;;;;;;;;;5127983;28;20464;-81
2020/12/13 18:09:14;;;;;;;24.58;13.38;;;;;;;;;;5126029;28;20028;-79
2020/12/13 18:11:41;;;;;;;26.02;13.85;;;;;;;;;;5111470;28;20114;-80
2020/12/13 18:14:07;;;;;;;20.92;13.45;;;;;;;;;;5126072;28;20023;-80
2020/12/13 18:16:34;;;;;;;25.25;13.90;;;;;;;;;;5111457;28;20024;-81
2020/12/13 18:19:00;;;;;;;25.00;12.82;;;;;;;;;;5110919;28;20079;-81
2020/12/13 18:21:26;;;;;;;22.60;12.55;;;;;;;;;;5128991;28;20049;-81
2020/12/13 18:23:52;;;;;;;20.60;12.50;;;;;;;;;;5126736;28;20035;-79
2020/12/13 18:26:18;;;;;;;22.75;14.38;;;;;;;;;;5127166;28;20812;-79
2020/12/13 18:28:47;;;;;;;26.77;14.88;;;;;;;;;;5111808;28;20028;-79
2020/12/13 18:31:14;;;;;;;20.50;13.80;;;;;;;;;;5123496;28;20020;-79
2020/12/13 18:33:40;;;;;;;22.13;14.27;;;;;;;;;;5109768;28;20040;-80
2020/12/13 18:36:06;;;;;;;24.27;13.10;;;;;;;;;;5123413;28;20023;-80
2020/12/13 18:38:32;;;;;;;19.67;12.13;;;;;;;;;;5110463;28;20108;-80
2020/12/13 18:40:58;;;;;;;19.00;11.63;;;;;;;;;;5118428;28;20103;-81
2020/12/13 18:43:24;;;;;;;19.50;11.18;;;;;;;;;;5131882;28;20012;-79
2020/12/13 18:45:50;;;;;;;21.95;12.90;;;;;;;;;;5115726;28;20020;-79
2020/12/13 18:48:16;;;;;;;21.55;12.20;;;;;;;;;;5133432;28;20495;-79
2020/12/13 18:50:45;;;;;;;25.67;13.60;;;;;;;;;;5135126;28;20039;-79
2020/12/13 18:53:15;;;;;;;22.35;12.65;;;;;;;;;;5131513;28;20019;-79
2020/12/13 18:55:41;;;;;;;21.13;13.45;;;;;;;;;;5112674;28;20030;-79
2020/12/13 18:58:07;;;;;;;26.27;13.93;;;;;;;;;;5127232;28;20047;-79
2020/12/13 19:00:33;;;;;;;27.90;16.20;;;;;;;;;;5126274;28;20075;-79
2020/12/13 19:05:38;;;;;;;27.13;16.13;;;;;;;;;;5128719;28;20040;-80
2020/12/13 19:08:05;;;;;;;36.00;22.55;;;;;;;;;;5129298;28;20024;-81
2020/12/13 19:10:32;;;;;;;43.95;28.38;;;;;;;;;;5116282;28;20027;-80
